Time;durP1;ratioP1;P1;durP2;ratioP2;P2;SDS_P1;SDS_P2;PMS_P1;PMS_P2;Temp;Humidity;BMP_temperature;BMP_pressure;BME280_temperature;BME280_humidity;BME280_pressure;Samples;Min_cycle;Max_cycle;Signal;HPM_P1;HPM_P2
2023/06/28 00:01:00;;;;;;;3.23;2.70;;;19.90;99.90;;;;;;5119523;27;20193;-44
2023/06/28 00:03:26;;;;;;;5.60;3.30;;;19.80;99.90;;;;;;5139025;27;20202;-42
2023/06/28 00:05:52;;;;;;;3.90;3.50;;;19.70;99.90;;;;;;5120520;27;20483;-44
2023/06/28 00:08:17;;;;;;;4.60;2.90;;;19.70;99.90;;;;;;5139016;27;20421;-45
2023/06/28 00:10:43;;;;;;;5.40;3.30;;;19.70;99.90;;;;;;5140634;27;20201;-41
2023/06/28 00:13:09;;;;;;;7.90;3.60;;;19.60;99.90;;;;;;5139881;27;20191;-40
2023/06/28 00:15:34;;;;;;;4.80;2.80;;;19.50;99.90;;;;;;5140087;27;20167;-42
2023/06/28 00:18:03;;;;;;;6.43;3.13;;;19.40;99.90;;;;;;5139420;27;20576;-41
2023/06/28 00:20:29;;;;;;;4.23;2.40;;;19.40;99.90;;;;;;5121432;27;20211;-42
2023/06/28 00:22:55;;;;;;;3.80;3.07;;;19.40;99.90;;;;;;5122394;27;20436;-44
2023/06/28 00:25:21;;;;;;;2.80;2.43;;;19.40;99.90;;;;;;5139800;27;20468;-42
2023/06/28 00:27:47;;;;;;;5.60;2.70;;;19.50;99.90;;;;;;5137923;27;20442;-44
2023/06/28 00:30:13;;;;;;;5.43;2.43;;;19.60;99.90;;;;;;5139295;27;20218;-41
2023/06/28 00:32:41;;;;;;;4.50;2.53;;;19.70;99.90;;;;;;5139221;27;20167;-45
2023/06/28 00:35:07;;;;;;;3.10;2.50;;;19.80;99.90;;;;;;5138288;27;20435;-44
2023/06/28 00:37:32;;;;;;;6.23;3.20;;;19.80;99.90;;;;;;5138881;27;20428;-45
2023/06/28 00:39:59;;;;;;;5.40;2.70;;;19.90;99.90;;;;;;5138997;27;20648;-46
2023/06/28 00:42:24;;;;;;;4.77;2.60;;;19.80;99.90;;;;;;5119753;27;20175;-43
2023/06/28 00:44:50;;;;;;;3.70;2.90;;;19.80;99.90;;;;;;5121874;27;20596;-42
2023/06/28 00:47:16;;;;;;;4.70;2.60;;;19.80;99.90;;;;;;5140582;27;20209;-43
2023/06/28 00:49:43;;;;;;;4.57;2.77;;;19.80;99.90;;;;;;5120627;27;20391;-41
2023/06/28 00:52:10;;;;;;;6.47;3.07;;;19.80;99.90;;;;;;5120706;27;20447;-42
2023/06/28 00:54:36;;;;;;;2.53;2.30;;;19.80;99.90;;;;;;5138756;27;20416;-43
2023/06/28 00:57:03;;;;;;;2.97;2.20;;;19.80;99.90;;;;;;5137822;27;20436;-42
2023/06/28 00:59:29;;;;;;;4.77;2.60;;;19.80;99.90;;;;;;5119921;27;20423;-42
2023/06/28 01:01:55;;;;;;;2.90;2.40;;;19.80;99.90;;;;;;5119553;27;20436;-44
2023/06/28 01:04:20;;;;;;;6.27;2.33;;;19.80;1.00;;;;;;5119708;27;20906;-42
2023/06/28 01:06:51;;;;;;;4.40;2.50;;;19.80;99.90;;;;;;5139530;27;20540;-44
2023/06/28 01:09:18;;;;;;;3.63;2.50;;;19.80;99.90;;;;;;5138801;27;20175;-43
2023/06/28 01:11:44;;;;;;;3.97;3.00;;;19.80;99.90;;;;;;5137389;27;20481;-41
2023/06/28 01:14:09;;;;;;;3.57;2.27;;;19.70;99.90;;;;;;5138098;27;20425;-42
2023/06/28 01:16:35;;;;;;;4.13;2.40;;;19.70;99.90;;;;;;5138088;27;20178;-42
2023/06/28 01:19:03;;;;;;;3.70;2.53;;;19.70;99.90;;;;;;5136925;27;20563;-44
2023/06/28 01:21:33;;;;;;;2.97;2.73;;;19.70;99.90;;;;;;5137663;27;20183;-41
2023/06/28 01:24:02;;;;;;;3.57;2.40;;;19.70;99.90;;;;;;5120740;28;20766;-43
2023/06/28 01:26:27;;;;;;;3.10;2.43;;;19.70;99.90;;;;;;5138002;27;20691;-42
2023/06/28 01:28:53;;;;;;;6.40;2.90;;;19.70;99.90;;;;;;5120657;28;20431;-44
2023/06/28 01:31:19;;;;;;;4.93;2.73;;;19.70;99.90;;;;;;5138993;27;20187;-42
2023/06/28 01:33:46;;;;;;;4.57;2.67;;;19.70;99.90;;;;;;5138208;27;20183;-44
2023/06/28 01:36:12;;;;;;;4.40;3.00;;;19.70;99.90;;;;;;5138953;27;20171;-42
2023/06/28 01:38:38;;;;;;;3.03;2.37;;;19.60;99.90;;;;;;5138996;28;20863;-44
2023/06/28 01:41:07;;;;;;;4.00;2.70;;;19.60;99.90;;;;;;5120154;28;20238;-42
2023/06/28 01:43:33;;;;;;;3.30;2.43;;;19.50;99.90;;;;;;5120657;28;20460;-43
2023/06/28 01:45:58;;;;;;;2.93;2.20;;;19.40;99.90;;;;;;5120163;28;20806;-42
2023/06/28 01:48:25;;;;;;;5.50;2.50;;;19.50;99.90;;;;;;5119871;28;20428;-43
2023/06/28 01:50:51;;;;;;;3.43;2.03;;;19.40;99.90;;;;;;5137882;28;20205;-44
2023/06/28 01:53:18;;;;;;;4.10;2.43;;;19.40;99.90;;;;;;5120418;28;20416;-41
2023/06/28 01:55:44;;;;;;;2.70;2.37;;;19.40;99.90;;;;;;5138216;28;20420;-44
2023/06/28 01:58:09;;;;;;;3.33;2.20;;;19.40;99.90;;;;;;5120035;28;20551;-43
2023/06/28 02:00:35;;;;;;;3.80;2.90;;;19.40;99.90;;;;;;5142153;27;20442;-42
2023/06/28 02:03:01;;;;;;;2.53;2.13;;;19.40;1.00;;;;;;5142453;27;20298;-43
2023/06/28 02:05:26;;;;;;;5.10;3.17;;;19.30;1.00;;;;;;5142746;27;20203;-43
2023/06/28 02:07:52;;;;;;;3.00;2.23;;;19.30;1.00;;;;;;5142793;27;20174;-42
2023/06/28 02:10:21;;;;;;;4.70;2.63;;;19.30;1.00;;;;;;5142104;27;20618;-43
2023/06/28 02:12:46;;;;;;;4.00;2.70;;;19.30;1.00;;;;;;5142234;27;20491;-43
2023/06/28 02:15:13;;;;;;;5.67;2.40;;;19.20;1.00;;;;;;5142026;27;20428;-43
2023/06/28 02:17:39;;;;;;;3.90;2.70;;;19.20;1.00;;;;;;5141924;27;20178;-41
2023/06/28 02:20:08;;;;;;;3.73;2.90;;;19.20;1.00;;;;;;5141633;27;20424;-46
2023/06/28 02:22:34;;;;;;;3.40;2.17;;;19.20;1.00;;;;;;5142460;27;20420;-42
2023/06/28 02:25:00;;;;;;;4.27;2.57;;;19.20;1.00;;;;;;5142145;27;20464;-45
2023/06/28 02:27:26;;;;;;;3.80;2.43;;;19.20;1.00;;;;;;5140333;27;20552;-45
2023/06/28 02:30:03;;;;;;;3.97;2.60;;;19.20;1.00;;;;;;5140741;27;20437;-45
2023/06/28 02:32:30;;;;;;;6.27;2.57;;;19.20;1.00;;;;;;5139766;27;20181;-43
2023/06/28 02:34:56;;;;;;;5.83;3.20;;;19.20;1.00;;;;;;5138910;27;20806;-44
2023/06/28 02:37:22;;;;;;;3.60;2.33;;;19.20;1.00;;;;;;5139191;27;20846;-46
2023/06/28 02:39:47;;;;;;;3.47;2.73;;;19.20;1.00;;;;;;5140019;27;20439;-42
2023/06/28 02:42:13;;;;;;;4.00;2.60;;;19.20;1.00;;;;;;5140757;27;20218;-43
2023/06/28 02:44:38;;;;;;;3.50;2.80;;;19.20;1.00;;;;;;5141547;27;20206;-42
2023/06/28 02:47:04;;;;;;;4.50;2.80;;;19.20;1.00;;;;;;5139375;27;20188;-44
2023/06/28 02:49:30;;;;;;;3.40;3.10;;;19.20;1.00;;;;;;5140670;27;20545;-42
2023/06/28 02:51:56;;;;;;;4.03;2.47;;;19.20;1.00;;;;;;5139908;27;20171;-43
2023/06/28 02:54:22;;;;;;;3.23;2.80;;;19.20;1.00;;;;;;5126639;27;20266;-43
2023/06/28 02:56:48;;;;;;;4.20;2.50;;;19.10;1.00;;;;;;5118302;28;20441;-43
2023/06/28 02:59:13;;;;;;;3.67;2.73;;;19.10;1.00;;;;;;5124687;27;20187;-42
2023/06/28 03:01:39;;;;;;;4.10;2.53;;;19.10;1.00;;;;;;5126604;27;20461;-43
2023/06/28 03:04:05;;;;;;;4.60;2.90;;;19.10;1.00;;;;;;5140304;27;20180;-42
2023/06/28 03:06:31;;;;;;;4.17;2.70;;;19.10;1.00;;;;;;5139648;27;20544;-42
2023/06/28 03:08:57;;;;;;;5.00;2.87;;;19.10;1.00;;;;;;5139750;27;20163;-43
2023/06/28 03:11:22;;;;;;;2.73;2.30;;;19.10;1.00;;;;;;5129722;27;20782;-41
2023/06/28 03:13:48;;;;;;;2.97;2.67;;;19.10;1.00;;;;;;5116159;28;20183;-44
2023/06/28 03:16:18;;;;;;;4.20;2.63;;;19.10;1.00;;;;;;5117398;28;20203;-42
2023/06/28 03:18:43;;;;;;;4.30;2.90;;;19.00;1.00;;;;;;5117547;28;21075;-43
2023/06/28 03:21:09;;;;;;;3.20;2.90;;;19.00;1.00;;;;;;5117418;28;20190;-44
2023/06/28 03:23:36;;;;;;;3.27;2.57;;;18.90;1.00;;;;;;5118797;28;20168;-44
2023/06/28 03:26:01;;;;;;;4.10;3.20;;;18.90;1.00;;;;;;5117793;28;20207;-45
2023/06/28 03:28:27;;;;;;;3.27;2.90;;;18.90;1.00;;;;;;5119255;28;20734;-42
2023/06/28 03:30:52;;;;;;;3.40;2.40;;;18.90;1.00;;;;;;5118222;28;20685;-43
2023/06/28 03:33:18;;;;;;;5.50;2.80;;;19.00;1.00;;;;;;5117546;28;20264;-42
2023/06/28 03:35:44;;;;;;;3.93;2.90;;;19.00;1.00;;;;;;5117559;28;20180;-44
2023/06/28 03:38:09;;;;;;;5.57;2.80;;;19.00;1.00;;;;;;5115773;28;20321;-45
2023/06/28 03:40:36;;;;;;;4.80;2.77;;;19.00;1.00;;;;;;5115944;28;20176;-42
2023/06/28 03:43:02;;;;;;;4.60;3.20;;;19.00;1.00;;;;;;5116029;28;20184;-43
2023/06/28 03:45:29;;;;;;;3.60;2.37;;;19.10;1.00;;;;;;5130222;27;20498;-43
2023/06/28 03:47:54;;;;;;;7.27;3.30;;;19.10;1.00;;;;;;5127914;27;20417;-42
2023/06/28 03:50:20;;;;;;;4.30;3.27;;;19.10;1.00;;;;;;5096332;28;20534;-41
2023/06/28 03:52:46;;;;;;;3.03;2.70;;;19.00;1.00;;;;;;5115967;28;20172;-42
2023/06/28 03:55:11;;;;;;;3.77;2.90;;;18.90;1.00;;;;;;5117858;28;20451;-43
2023/06/28 03:57:37;;;;;;;4.67;3.47;;;18.80;1.00;;;;;;5117738;28;20234;-42
2023/06/28 04:00:07;;;;;;;3.60;2.70;;;18.80;1.00;;;;;;5117721;28;20167;-45
2023/06/28 04:02:32;;;;;;;5.23;3.00;;;18.80;1.00;;;;;;5128946;27;20182;-43
2023/06/28 04:04:58;;;;;;;3.60;2.73;;;18.70;1.00;;;;;;5120768;27;20469;-42
2023/06/28 04:07:24;;;;;;;7.90;3.03;;;18.70;1.00;;;;;;5133973;27;20210;-41
2023/06/28 04:09:50;;;;;;;4.10;3.10;;;18.70;1.00;;;;;;5137202;27;20177;-43
2023/06/28 04:12:16;;;;;;;4.77;3.27;;;18.70;1.00;;;;;;5136448;27;20573;-42
2023/06/28 04:14:42;;;;;;;4.70;3.20;;;18.60;1.00;;;;;;5136147;27;20510;-44
2023/06/28 04:17:07;;;;;;;4.67;2.50;;;18.60;1.00;;;;;;5135969;27;20239;-42
2023/06/28 04:19:33;;;;;;;5.13;3.37;;;18.50;1.00;;;;;;5136930;27;20182;-43
2023/06/28 04:21:59;;;;;;;5.20;3.10;;;18.60;1.00;;;;;;5137575;27;20179;-43
2023/06/28 04:24:25;;;;;;;4.70;2.93;;;18.60;1.00;;;;;;5132498;27;20227;-45
2023/06/28 04:26:51;;;;;;;4.40;2.93;;;18.60;1.00;;;;;;5135924;27;20417;-42
2023/06/28 04:29:16;;;;;;;6.10;3.40;;;18.50;1.00;;;;;;5136616;27;20428;-42
2023/06/28 04:31:42;;;;;;;8.10;3.60;;;18.60;1.00;;;;;;5136695;27;20548;-43
2023/06/28 04:34:10;;;;;;;3.77;3.20;;;18.60;1.00;;;;;;5137339;27;20622;-46
2023/06/28 04:36:36;;;;;;;4.00;3.10;;;18.60;1.00;;;;;;5137804;27;20175;-41
2023/06/28 04:39:03;;;;;;;5.07;2.90;;;18.60;1.00;;;;;;5125684;27;20749;-42
2023/06/28 04:41:29;;;;;;;2.97;2.73;;;18.70;1.00;;;;;;5098044;28;20186;-42
2023/06/28 04:43:56;;;;;;;3.57;2.77;;;18.80;1.00;;;;;;5115624;28;20424;-44
2023/06/28 04:46:26;;;;;;;4.33;3.23;;;18.90;1.00;;;;;;5115002;28;20616;-43
2023/06/28 04:48:52;;;;;;;6.50;3.67;;;19.00;1.00;;;;;;5110306;28;20525;-42
2023/06/28 04:51:19;;;;;;;4.90;3.07;;;19.20;1.00;;;;;;5111505;28;20509;-42
2023/06/28 04:53:46;;;;;;;3.77;3.40;;;19.30;1.00;;;;;;5112116;28;20410;-42
2023/06/28 04:56:11;;;;;;;3.83;3.43;;;19.30;1.00;;;;;;5111638;28;20528;-44
2023/06/28 04:58:37;;;;;;;3.10;2.80;;;19.30;1.00;;;;;;5111663;28;20564;-41
2023/06/28 05:01:06;;;;;;;3.77;2.80;;;19.30;1.00;;;;;;5114091;28;20179;-42
2023/06/28 05:03:32;;;;;;;4.60;3.80;;;19.30;1.00;;;;;;5113359;28;20432;-41
2023/06/28 05:05:57;;;;;;;4.40;3.77;;;19.20;1.00;;;;;;5113494;28;20762;-41
2023/06/28 05:08:23;;;;;;;4.00;3.20;;;19.20;1.00;;;;;;5113015;28;20164;-42
2023/06/28 05:10:49;;;;;;;2.57;2.27;;;19.00;1.00;;;;;;5114901;28;20172;-41
2023/06/28 05:13:15;;;;;;;3.40;2.73;;;19.00;1.00;;;;;;5112601;28;20432;-41
2023/06/28 05:15:40;;;;;;;3.40;2.83;;;19.10;1.00;;;;;;5116624;27;20429;-41
2023/06/28 05:18:06;;;;;;;4.23;3.10;;;19.30;1.00;;;;;;5131522;27;20183;-44
2023/06/28 05:20:32;;;;;;;3.47;2.93;;;19.60;1.00;;;;;;5108448;28;20178;-44
2023/06/28 05:23:15;;;;;;;5.73;2.70;;;19.70;1.00;;;;;;5113253;28;20194;-42
2023/06/28 05:25:41;;;;;;;3.83;3.07;;;19.90;1.00;;;;;;5111983;28;20211;-40
2023/06/28 05:28:09;;;;;;;7.57;3.53;;;20.00;1.00;;;;;;5111336;28;20434;-42
2023/06/28 05:30:34;;;;;;;7.00;3.53;;;20.00;1.00;;;;;;5111875;28;20734;-41
2023/06/28 05:33:02;;;;;;;5.97;3.10;;;20.10;1.00;;;;;;5113848;28;20504;-41
2023/06/28 05:35:35;;;;;;;3.60;3.00;;;20.10;1.00;;;;;;5129929;27;20170;-41
2023/06/28 05:38:02;;;;;;;3.93;2.77;;;20.10;1.00;;;;;;5130446;27;20477;-41
2023/06/28 05:40:28;;;;;;;3.50;2.70;;;20.20;1.00;;;;;;5127240;28;20459;-43
2023/06/28 05:42:57;;;;;;;4.37;3.10;;;20.20;1.00;;;;;;5097853;28;20439;-41
2023/06/28 05:45:26;;;;;;;5.00;2.93;;;20.40;1.00;;;;;;5131720;28;20515;-42
2023/06/28 05:47:53;;;;;;;4.13;2.87;;;20.50;1.00;;;;;;5130678;28;20789;-40
2023/06/28 05:50:21;;;;;;;2.90;2.40;;;20.70;1.00;;;;;;5113630;28;20424;-41
2023/06/28 05:52:47;;;;;;;2.90;2.60;;;20.80;1.00;;;;;;5132586;28;20424;-41
2023/06/28 05:55:13;;;;;;;3.93;2.70;;;21.00;1.00;;;;;;5132414;28;20594;-42
2023/06/28 05:57:39;;;;;;;4.97;3.57;;;21.10;1.00;;;;;;5130095;28;20566;-40
2023/06/28 06:00:07;;;;;;;4.67;2.70;;;21.30;1.00;;;;;;5111429;28;21028;-45
2023/06/28 06:02:33;;;;;;;3.57;2.40;;;21.40;1.00;;;;;;5131313;28;20702;-41
2023/06/28 06:05:13;;;;;;;3.50;2.43;;;21.60;1.00;;;;;;5128816;28;20969;-42
2023/06/28 06:07:39;;;;;;;4.07;2.67;;;21.80;1.00;;;;;;5108536;28;20731;-42
2023/06/28 06:10:08;;;;;;;5.63;2.83;;;22.00;1.00;;;;;;5131719;28;20412;-43
2023/06/28 06:12:34;;;;;;;4.87;3.10;;;22.20;1.00;;;;;;5131694;28;20425;-41
2023/06/28 06:14:59;;;;;;;4.10;2.60;;;22.30;1.00;;;;;;5132459;28;20507;-43
2023/06/28 06:17:25;;;;;;;3.60;2.67;;;22.30;1.00;;;;;;5132257;28;20293;-43
2023/06/28 06:19:50;;;;;;;4.77;2.80;;;22.30;1.00;;;;;;5130774;28;20208;-43
2023/06/28 06:22:16;;;;;;;5.80;3.07;;;22.30;1.00;;;;;;5131084;28;20171;-41
2023/06/28 06:24:41;;;;;;;4.43;3.10;;;22.30;1.00;;;;;;5130434;28;20214;-42
2023/06/28 06:27:08;;;;;;;3.83;3.10;;;21.60;1.00;;;;;;5118953;28;20258;-43
2023/06/28 06:29:33;;;;;;;8.20;3.10;;;21.30;1.00;;;;;;5112891;28;20210;-42
2023/06/28 06:31:59;;;;;;;4.83;2.80;;;21.30;1.00;;;;;;5093942;28;20847;-43
2023/06/28 06:34:25;;;;;;;6.10;3.00;;;21.60;1.00;;;;;;5111885;28;20244;-43
2023/06/28 06:36:51;;;;;;;3.30;2.83;;;21.90;1.00;;;;;;5110898;28;20712;-42
2023/06/28 06:39:17;;;;;;;3.83;2.70;;;22.20;1.00;;;;;;5110047;28;20425;-43
2023/06/28 06:41:42;;;;;;;4.13;2.37;;;22.40;1.00;;;;;;5092217;28;20172;-43
2023/06/28 06:44:08;;;;;;;3.13;2.40;;;22.50;1.00;;;;;;5102931;28;20441;-41
2023/06/28 06:46:33;;;;;;;6.30;2.93;;;22.60;1.00;;;;;;5112927;28;20183;-43
2023/06/28 06:48:59;;;;;;;3.67;2.70;;;22.70;1.00;;;;;;5098816;28;20504;-44
2023/06/28 06:51:25;;;;;;;4.17;2.97;;;22.70;1.00;;;;;;5114836;28;20195;-43
2023/06/28 06:53:50;;;;;;;5.47;2.70;;;22.80;1.00;;;;;;5115907;28;20178;-44
2023/06/28 06:56:22;;;;;;;3.37;2.70;;;22.80;1.00;;;;;;5097608;28;20558;-42
2023/06/28 06:58:48;;;;;;;3.60;2.70;;;22.90;1.00;;;;;;5081619;28;20252;-43
2023/06/28 07:01:14;;;;;;;5.67;2.93;;;22.90;1.00;;;;;;5077340;28;20519;-44
2023/06/28 07:03:40;;;;;;;7.17;2.87;;;22.90;1.00;;;;;;5092986;28;20430;-42
2023/06/28 07:06:06;;;;;;;3.90;2.70;;;23.00;1.00;;;;;;5095670;28;20462;-41
2023/06/28 07:08:33;;;;;;;7.63;2.83;;;23.10;1.00;;;;;;5096122;28;20172;-42
2023/06/28 07:10:59;;;;;;;6.17;2.60;;;23.10;1.00;;;;;;5096518;28;20414;-41
2023/06/28 07:13:24;;;;;;;6.30;2.00;;;23.10;1.00;;;;;;5094051;28;20422;-42
2023/06/28 07:15:50;;;;;;;3.50;2.77;;;23.30;1.00;;;;;;5094978;28;20180;-41
2023/06/28 07:18:16;;;;;;;4.03;2.60;;;23.30;1.00;;;;;;5093573;28;20203;-42
2023/06/28 07:20:41;;;;;;;5.27;2.80;;;23.40;1.00;;;;;;5092606;28;20367;-44
2023/06/28 07:23:07;;;;;;;4.93;3.00;;;23.40;1.00;;;;;;5091829;28;20263;-43
2023/06/28 07:25:36;;;;;;;6.27;2.57;;;23.40;1.00;;;;;;5107670;28;20268;-43
2023/06/28 07:28:05;;;;;;;3.40;2.27;;;23.30;1.00;;;;;;5116501;27;20502;-44
2023/06/28 07:30:51;;;;;;;5.87;2.77;;;23.30;1.00;;;;;;5133991;27;20716;-41
2023/06/28 07:33:16;;;;;;;9.10;3.30;;;23.20;1.00;;;;;;5134184;27;20417;-42
2023/06/28 07:35:42;;;;;;;4.80;2.80;;;23.20;1.00;;;;;;5136103;27;20420;-41
2023/06/28 07:38:07;;;;;;;4.17;2.33;;;23.20;1.00;;;;;;5116530;27;20504;-43
2023/06/28 07:40:33;;;;;;;4.23;2.53;;;23.20;1.00;;;;;;5136330;27;20560;-41
2023/06/28 07:43:02;;;;;;;5.63;2.60;;;23.20;1.00;;;;;;5138435;27;20275;-41
2023/06/28 07:45:28;;;;;;;2.87;2.60;;;23.20;1.00;;;;;;5137773;27;20245;-42
2023/06/28 07:47:53;;;;;;;7.43;3.37;;;23.20;1.00;;;;;;5137080;27;20437;-44
2023/06/28 07:50:20;;;;;;;3.37;2.50;;;23.40;1.00;;;;;;5135953;27;20722;-42
2023/06/28 07:52:46;;;;;;;6.73;2.70;;;23.40;1.00;;;;;;5136619;27;20274;-42
2023/06/28 07:55:12;;;;;;;3.53;2.47;;;23.50;1.00;;;;;;5136618;27;20527;-43
2023/06/28 07:57:37;;;;;;;3.20;2.60;;;23.60;1.00;;;;;;5141392;27;20670;-43
2023/06/28 08:00:04;;;;;;;5.50;2.23;;;23.70;1.00;;;;;;5155166;27;20432;-41
2023/06/28 08:02:30;;;;;;;5.47;2.70;;;23.60;1.00;;;;;;5155349;27;20266;-42
2023/06/28 08:04:58;;;;;;;4.23;2.90;;;23.10;1.00;;;;;;5155729;27;20837;-42
2023/06/28 08:07:24;;;;;;;4.30;2.90;;;23.00;1.00;;;;;;5155184;27;20277;-45
2023/06/28 08:09:50;;;;;;;5.23;3.17;;;23.10;1.00;;;;;;5154618;27;20456;-41
2023/06/28 08:12:16;;;;;;;8.33;2.43;;;22.80;1.00;;;;;;5153707;27;20851;-45
2023/06/28 08:14:41;;;;;;;4.17;2.57;;;22.90;1.00;;;;;;5154863;27;20170;-41
2023/06/28 08:17:07;;;;;;;4.70;3.20;;;23.00;1.00;;;;;;5153073;27;20214;-41
2023/06/28 08:19:32;;;;;;;6.57;2.60;;;23.10;1.00;;;;;;5153294;27;20427;-43
2023/06/28 08:21:58;;;;;;;5.90;2.80;;;22.90;1.00;;;;;;5151239;27;20553;-42
2023/06/28 08:24:24;;;;;;;5.87;2.73;;;22.80;1.00;;;;;;5117382;27;20206;-45
2023/06/28 08:26:49;;;;;;;6.33;2.77;;;22.80;1.00;;;;;;5153413;27;20162;-43
2023/06/28 08:29:16;;;;;;;6.03;3.20;;;22.90;1.00;;;;;;5152059;27;20400;-46
2023/06/28 08:31:42;;;;;;;9.50;2.70;;;22.80;1.00;;;;;;5150922;27;20442;-42
2023/06/28 08:34:08;;;;;;;4.97;2.70;;;22.80;1.00;;;;;;5151919;27;20800;-42
2023/06/28 08:36:33;;;;;;;2.20;1.97;;;22.90;1.00;;;;;;5153944;27;20988;-44
2023/06/28 08:38:59;;;;;;;3.73;2.30;;;23.10;1.00;;;;;;5152350;27;20569;-46
2023/06/28 08:41:27;;;;;;;3.60;2.67;;;23.40;1.00;;;;;;5152653;27;20163;-49
2023/06/28 08:43:53;;;;;;;9.20;2.93;;;23.70;1.00;;;;;;5153768;27;20277;-48
2023/06/28 08:46:19;;;;;;;5.20;2.57;;;24.00;1.00;;;;;;5135532;27;20581;-49
2023/06/28 08:48:46;;;;;;;4.87;2.30;;;24.00;1.00;;;;;;5153612;27;20515;-48
2023/06/28 08:51:13;;;;;;;3.90;2.67;;;24.10;1.00;;;;;;5134316;27;20178;-48
2023/06/28 08:53:44;;;;;;;2.97;2.30;;;24.20;1.00;;;;;;5153451;27;20506;-49
2023/06/28 08:56:09;;;;;;;4.07;2.87;;;24.00;1.00;;;;;;5152683;27;20770;-50
2023/06/28 08:58:35;;;;;;;6.63;2.80;;;24.00;1.00;;;;;;5131061;27;20461;-47
2023/06/28 09:01:01;;;;;;;5.60;2.60;;;24.00;1.00;;;;;;5132682;27;20502;-48
2023/06/28 09:03:30;;;;;;;3.53;2.50;;;24.00;1.00;;;;;;5131847;27;20579;-49
2023/06/28 09:05:56;;;;;;;4.67;2.70;;;23.80;1.00;;;;;;5132455;27;20267;-47
2023/06/28 09:08:22;;;;;;;4.27;2.10;;;23.90;1.00;;;;;;5133369;27;20404;-50
2023/06/28 09:10:48;;;;;;;6.27;2.30;;;24.30;1.00;;;;;;5134321;27;20481;-50
2023/06/28 09:13:19;;;;;;;3.20;2.90;;;24.90;1.00;;;;;;5133609;27;20428;-50
2023/06/28 09:15:46;;;;;;;5.33;3.83;;;25.10;1.00;;;;;;5133170;27;20433;-49
2023/06/28 09:18:12;;;;;;;5.57;2.53;;;25.30;1.00;;;;;;5134402;27;20463;-48
2023/06/28 09:20:46;;;;;;;5.73;2.63;;;25.60;1.00;;;;;;5133176;27;20775;-46
2023/06/28 09:23:12;;;;;;;3.43;3.13;;;25.90;1.00;;;;;;5133726;27;20178;-49
2023/06/28 09:25:37;;;;;;;6.00;2.93;;;26.10;1.00;;;;;;5130335;27;20772;-47
2023/06/28 09:28:05;;;;;;;4.10;2.90;;;25.90;1.00;;;;;;5129677;27;20233;-47
2023/06/28 09:30:31;;;;;;;3.33;2.77;;;26.00;1.00;;;;;;5131640;27;20175;-51
2023/06/28 09:32:56;;;;;;;3.80;2.33;;;26.20;1.00;;;;;;5129943;27;20492;-50
2023/06/28 09:35:23;;;;;;;4.73;2.60;;;26.00;1.00;;;;;;5134604;27;20226;-47
2023/06/28 09:37:52;;;;;;;5.30;2.73;;;26.60;1.00;;;;;;5133023;27;20175;-48
2023/06/28 09:40:18;;;;;;;5.30;3.27;;;27.10;1.00;;;;;;5132701;27;20451;-48
2023/06/28 09:42:45;;;;;;;5.80;3.47;;;27.50;1.00;;;;;;5131538;28;20428;-51
2023/06/28 09:45:27;;;;;;;5.37;3.17;;;27.60;1.00;;;;;;5133899;27;20217;-49
2023/06/28 09:48:03;;;;;;;3.50;2.90;;;27.40;1.00;;;;;;5132656;28;20834;-48
2023/06/28 09:50:40;;;;;;;4.17;2.80;;;27.40;1.00;;;;;;5134996;27;20404;-47
2023/06/28 09:53:08;;;;;;;4.13;3.00;;;27.40;1.00;;;;;;5133238;27;20522;-49
2023/06/28 09:55:33;;;;;;;5.43;3.13;;;27.50;1.00;;;;;;5133784;27;20663;-47
2023/06/28 09:58:00;;;;;;;4.60;2.60;;;27.90;1.00;;;;;;5142519;27;20532;-49
2023/06/28 10:00:28;;;;;;;4.37;3.07;;;28.40;1.00;;;;;;5152901;27;20197;-50
2023/06/28 10:02:53;;;;;;;4.83;3.00;;;28.60;1.00;;;;;;5151947;27;20404;-47
2023/06/28 10:05:19;;;;;;;6.67;3.30;;;29.00;1.00;;;;;;5136466;27;20467;-47
2023/06/28 10:07:47;;;;;;;7.53;3.20;;;29.60;1.00;;;;;;5137033;27;20628;-51
2023/06/28 10:10:13;;;;;;;5.37;2.50;;;30.00;1.00;;;;;;5153459;27;20179;-52
2023/06/28 10:12:40;;;;;;;3.77;2.70;;;29.70;1.00;;;;;;5153819;27;20420;-51
2023/06/28 10:15:15;;;;;;;3.77;2.73;;;29.80;1.00;;;;;;5133027;27;20269;-51
2023/06/28 10:17:43;;;;;;;4.13;2.80;;;29.70;1.00;;;;;;5134965;27;20503;-50
2023/06/28 10:20:08;;;;;;;2.93;2.40;;;29.70;1.00;;;;;;5135516;27;20861;-48
2023/06/28 10:22:34;;;;;;;3.03;2.70;;;29.40;1.00;;;;;;5157287;27;20423;-49
2023/06/28 10:25:02;;;;;;;6.13;2.90;;;29.20;1.00;;;;;;5138159;27;20244;-50
2023/06/28 10:27:28;;;;;;;5.67;2.80;;;29.10;1.00;;;;;;5158080;27;20423;-48
2023/06/28 10:29:54;;;;;;;5.00;2.70;;;29.20;1.00;;;;;;5135898;27;20443;-49
2023/06/28 10:32:20;;;;;;;4.83;3.10;;;29.60;1.00;;;;;;5137263;27;20179;-49
2023/06/28 10:34:51;;;;;;;4.30;3.03;;;30.30;1.00;;;;;;5139275;27;20428;-52
2023/06/28 10:37:23;;;;;;;8.10;2.83;;;31.20;1.00;;;;;;5139154;27;20232;-47
2023/06/28 10:39:50;;;;;;;3.03;2.40;;;32.10;1.00;;;;;;5118214;27;20447;-48
2023/06/28 10:42:17;;;;;;;3.23;2.43;;;32.90;1.00;;;;;;5119346;27;20417;-47
2023/06/28 10:44:57;;;;;;;3.23;2.90;;;33.60;1.00;;;;;;5137564;27;20799;-46
2023/06/28 10:47:24;;;;;;;4.83;2.80;;;34.60;1.00;;;;;;5135477;27;20427;-47
2023/06/28 10:50:14;;;;;;;4.00;2.53;;;34.50;1.00;;;;;;5136473;27;20428;-49
2023/06/28 10:52:47;;;;;;;4.30;3.00;;;34.40;1.00;;;;;;5116574;27;20391;-50
2023/06/28 10:55:20;;;;;;;3.93;2.63;;;34.70;1.00;;;;;;5133824;27;20404;-49
2023/06/28 10:57:47;;;;;;;4.00;2.20;;;34.40;1.00;;;;;;5116045;27;20914;-49
2023/06/28 11:00:39;;;;;;;5.07;2.93;;;33.40;1.00;;;;;;5116358;27;20481;-47
2023/06/28 11:03:05;;;;;;;4.03;3.27;;;32.60;1.00;;;;;;5134757;27;20646;-49
2023/06/28 11:05:56;;;;;;;6.40;3.83;;;32.70;1.00;;;;;;5136230;27;20463;-49
2023/06/28 11:08:34;;;;;;;5.63;2.73;;;33.60;1.00;;;;;;5134257;27;20419;-49
2023/06/28 11:11:01;;;;;;;2.97;2.23;;;34.40;1.00;;;;;;5135004;27;20690;-47
2023/06/28 11:13:31;;;;;;;3.93;2.60;;;35.30;1.00;;;;;;5118235;27;20410;-51
2023/06/28 11:16:16;;;;;;;5.27;2.87;;;36.20;1.00;;;;;;5137366;27;20407;-49
2023/06/28 11:18:41;;;;;;;4.27;2.97;;;36.60;1.00;;;;;;5134895;27;20526;-49
2023/06/28 11:21:15;;;;;;;3.83;2.53;;;36.20;1.00;;;;;;5135656;27;20503;-49
2023/06/28 11:23:43;;;;;;;3.37;2.70;;;35.70;1.00;;;;;;5123292;27;20187;-52
2023/06/28 11:26:18;;;;;;;3.90;2.50;;;36.50;1.00;;;;;;5096575;28;20451;-49
2023/06/28 11:28:51;;;;;;;2.77;2.23;;;36.50;1.00;;;;;;5114220;28;20620;-53
2023/06/28 11:31:20;;;;;;;8.23;3.20;;;34.90;1.00;;;;;;5117648;27;20408;-49
2023/06/28 11:33:48;;;;;;;3.73;2.83;;;33.50;1.00;;;;;;5094218;28;21016;-48
2023/06/28 11:36:18;;;;;;;3.73;3.00;;;32.50;1.00;;;;;;5112879;28;20435;-52
2023/06/28 11:38:45;;;;;;;4.27;3.00;;;32.90;1.00;;;;;;5093391;28;20566;-52
2023/06/28 11:41:14;;;;;;;4.70;2.67;;;33.70;1.00;;;;;;5133263;27;20436;-50
2023/06/28 11:43:42;;;;;;;2.70;2.40;;;33.70;1.00;;;;;;5134272;27;20417;-48
2023/06/28 11:46:08;;;;;;;3.33;3.03;;;33.00;1.00;;;;;;5134976;27;20443;-49
2023/06/28 11:48:34;;;;;;;2.80;2.60;;;32.30;1.00;;;;;;5114239;28;20449;-52
2023/06/28 11:51:01;;;;;;;3.70;2.50;;;32.20;1.00;;;;;;5113332;28;20421;-52
2023/06/28 11:53:29;;;;;;;3.23;2.40;;;32.00;1.00;;;;;;5113559;28;20184;-50
2023/06/28 11:55:56;;;;;;;4.00;2.63;;;31.40;1.00;;;;;;5115067;28;20452;-51
2023/06/28 11:58:33;;;;;;;4.37;2.63;;;31.60;1.00;;;;;;5115628;28;20424;-48
2023/06/28 12:01:00;;;;;;;5.83;2.87;;;31.70;1.00;;;;;;5113150;28;20853;-50
2023/06/28 12:03:31;;;;;;;3.57;2.90;;;31.80;1.00;;;;;;5112750;28;20857;-49
2023/06/28 12:06:00;;;;;;;4.70;2.83;;;31.40;1.00;;;;;;5113621;28;20445;-49
2023/06/28 12:08:33;;;;;;;3.10;2.53;;;31.10;1.00;;;;;;5117027;27;20438;-48
2023/06/28 12:11:00;;;;;;;2.50;2.30;;;31.00;1.00;;;;;;5135892;27;20416;-49
2023/06/28 12:13:28;;;;;;;3.80;2.83;;;31.90;1.00;;;;;;5132552;27;20806;-49
2023/06/28 12:15:54;;;;;;;3.10;2.50;;;33.50;1.00;;;;;;5115823;27;20843;-49
2023/06/28 12:18:20;;;;;;;2.30;2.03;;;35.30;1.00;;;;;;5095041;28;20451;-52
2023/06/28 12:20:45;;;;;;;3.40;2.00;;;36.10;1.00;;;;;;5111898;28;20444;-50
2023/06/28 12:23:15;;;;;;;5.63;2.57;;;36.40;1.00;;;;;;5111557;28;20191;-49
2023/06/28 12:25:41;;;;;;;3.10;2.30;;;35.10;1.00;;;;;;5111858;28;20598;-49
2023/06/28 12:28:08;;;;;;;4.70;2.67;;;33.80;1.00;;;;;;5111127;28;20427;-49
2023/06/28 12:30:35;;;;;;;2.67;2.10;;;32.90;1.00;;;;;;5110736;28;20436;-50
2023/06/28 12:33:08;;;;;;;3.70;2.60;;;32.40;1.00;;;;;;5123970;27;20469;-52
2023/06/28 12:35:34;;;;;;;3.10;2.10;;;31.90;1.00;;;;;;5113958;28;20502;-49
2023/06/28 12:38:02;;;;;;;3.60;2.30;;;31.40;99.90;;;;;;5114874;28;20389;-48
2023/06/28 12:40:36;;;;;;;4.57;3.17;;;31.20;1.00;;;;;;5097062;28;20417;-52
2023/06/28 12:43:12;;;;;;;4.97;2.63;;;31.20;99.90;;;;;;5112624;28;20404;-49
2023/06/28 12:45:51;;;;;;;3.70;2.30;;;31.80;1.00;;;;;;5101466;27;20485;-49
2023/06/28 12:48:18;;;;;;;3.87;2.43;;;33.00;1.00;;;;;;5117246;27;20425;-50
2023/06/28 12:50:48;;;;;;;3.37;2.57;;;33.60;1.00;;;;;;5115444;28;20405;-50
2023/06/28 12:53:15;;;;;;;5.03;3.20;;;33.70;1.00;;;;;;5134793;27;20419;-52
2023/06/28 12:55:41;;;;;;;3.73;2.57;;;32.70;1.00;;;;;;5117326;27;20515;-48